Pagrindinis puslapis
METAR-TAF:

METAR-TAF

Oro uostai :

Ahvazas, Iranas

platuma: 31-20N, ilguma: 048-40E, Aukštis: 20 m

Dabartinis oras

Ataskaita buvo paskelbta 20 minutes, ne 00:00 UTC
Ramus vėjas
Temperatūra 16°C
Drėgmė 51%
Slėgis 1009 hPa
Matomumas 10 km arba daugiau
nėra debesų žemiau 1500 m ir nėra kamuolinių lietaus debesų

METAR: OIAW 200000Z 00000KT CAVOK 16/06 Q1009

Laikas: 03:50 (00:20 UTC)

Prognozė

Ataskaita buvo paskelbta 1 valandą ir 20 minutes, ne 23:00 UTC
Prognozė galioja nuo 20 metu 00 UTC su 21 metu 06 UTC
Vėjas 8 kt iš Vakarų
Matomumas: 7000 m
Laikinai
nuo 20 metu 00 UTC su /2 metu 00 UTC
Matomumas: 3000 m
migla
Tapsmas
nuo 20 metu 22 UTC su 20 metu 24 UTC
Matomumas: 3000 m
migla
Tapsmas
nuo 21 metu 04 UTC su 21 metu 06 UTC
Matomumas: 7000 m

TAF: OIAW 192300Z 2000/2106 28008KT 7000 NSC TEMPO 2000//2005 3000 HZ BECMG 2022/2024 3000 HZ BECMG 2104/2106 7000

Orai ataskaitas ir orų prognozės (METAR, TAF).

turimą stotys yra geltonos ir raudonos taškus žemėlapyje.

Perkelti pele per norėdami pamatyti stoties vardą.

Tada spustelėkite, norėdami matyti oro stebėjimo ir prognozės.

Norėdami pakeisti žemėlapį: spustelėkite ant žalios mygtukų su juodo kryžiaus žemyn,; žalią mygtuką su brūkšneliu, jei norite nutolinti; arba žalių rodyklių gretimoms žemėlapius.


METAR-TAF: